sensor_id;sensor_type;location;lat;lon;timestamp;P1;durP1;ratioP1;P2;durP2;ratioP2
13568;SDS011;6856;51.460;7.158;2023-06-22T00:01:21;2.20;;;1.73;;
13568;SDS011;6856;51.460;7.158;2023-06-22T00:03:56;3.35;;;2.20;;
13568;SDS011;6856;51.460;7.158;2023-06-22T00:06:31;3.13;;;2.20;;
13568;SDS011;6856;51.460;7.158;2023-06-22T00:09:06;2.78;;;2.28;;
13568;SDS011;6856;51.460;7.158;2023-06-22T00:11:46;3.55;;;2.45;;
13568;SDS011;6856;51.460;7.158;2023-06-22T00:14:22;4.57;;;2.80;;
13568;SDS011;6856;51.460;7.158;2023-06-22T00:16:56;3.22;;;2.55;;
13568;SDS011;6856;51.460;7.158;2023-06-22T00:19:30;3.25;;;2.60;;
13568;SDS011;6856;51.460;7.158;2023-06-22T00:22:07;3.78;;;2.53;;
13568;SDS011;6856;51.460;7.158;2023-06-22T00:24:42;3.72;;;2.72;;
13568;SDS011;6856;51.460;7.158;2023-06-22T00:27:17;3.28;;;2.42;;
13568;SDS011;6856;51.460;7.158;2023-06-22T00:29:54;3.33;;;2.47;;
13568;SDS011;6856;51.460;7.158;2023-06-22T00:32:28;3.28;;;2.90;;
13568;SDS011;6856;51.460;7.158;2023-06-22T00:35:03;3.40;;;2.80;;
13568;SDS011;6856;51.460;7.158;2023-06-22T00:37:38;3.88;;;2.67;;
13568;SDS011;6856;51.460;7.158;2023-06-22T00:40:17;3.92;;;2.95;;
13568;SDS011;6856;51.460;7.158;2023-06-22T00:42:53;2.88;;;2.35;;
13568;SDS011;6856;51.460;7.158;2023-06-22T00:45:29;5.28;;;3.50;;
13568;SDS011;6856;51.460;7.158;2023-06-22T00:48:05;4.20;;;3.05;;
13568;SDS011;6856;51.460;7.158;2023-06-22T00:50:40;3.08;;;2.50;;
13568;SDS011;6856;51.460;7.158;2023-06-22T00:53:15;3.50;;;2.63;;
13568;SDS011;6856;51.460;7.158;2023-06-22T00:55:51;4.03;;;3.13;;
13568;SDS011;6856;51.460;7.158;2023-06-22T00:58:25;4.43;;;3.20;;
13568;SDS011;6856;51.460;7.158;2023-06-22T01:01:00;5.30;;;3.70;;
13568;SDS011;6856;51.460;7.158;2023-06-22T01:03:35;4.00;;;2.88;;
13568;SDS011;6856;51.460;7.158;2023-06-22T01:06:13;3.67;;;3.13;;
13568;SDS011;6856;51.460;7.158;2023-06-22T01:08:55;6.63;;;2.90;;
13568;SDS011;6856;51.460;7.158;2023-06-22T01:11:41;3.42;;;2.70;;
13568;SDS011;6856;51.460;7.158;2023-06-22T01:14:20;3.97;;;2.78;;
13568;SDS011;6856;51.460;7.158;2023-06-22T01:17:02;3.40;;;2.85;;
13568;SDS011;6856;51.460;7.158;2023-06-22T01:19:43;4.47;;;2.85;;
13568;SDS011;6856;51.460;7.158;2023-06-22T01:22:30;3.28;;;2.67;;
13568;SDS011;6856;51.460;7.158;2023-06-22T01:25:10;4.43;;;3.20;;
13568;SDS011;6856;51.460;7.158;2023-06-22T01:27:56;4.10;;;3.10;;
13568;SDS011;6856;51.460;7.158;2023-06-22T01:30:52;4.82;;;3.90;;
13568;SDS011;6856;51.460;7.158;2023-06-22T01:33:37;4.38;;;3.28;;
13568;SDS011;6856;51.460;7.158;2023-06-22T01:36:18;4.00;;;3.22;;
13568;SDS011;6856;51.460;7.158;2023-06-22T01:38:54;4.30;;;3.58;;
13568;SDS011;6856;51.460;7.158;2023-06-22T01:41:33;5.03;;;3.95;;
13568;SDS011;6856;51.460;7.158;2023-06-22T01:44:11;4.88;;;3.50;;
13568;SDS011;6856;51.460;7.158;2023-06-22T01:46:47;5.28;;;3.58;;
13568;SDS011;6856;51.460;7.158;2023-06-22T01:49:24;5.32;;;3.90;;
13568;SDS011;6856;51.460;7.158;2023-06-22T01:51:59;4.07;;;3.67;;
13568;SDS011;6856;51.460;7.158;2023-06-22T01:54:33;4.43;;;3.50;;
13568;SDS011;6856;51.460;7.158;2023-06-22T01:57:08;4.55;;;2.97;;
13568;SDS011;6856;51.460;7.158;2023-06-22T01:59:49;4.35;;;3.38;;
13568;SDS011;6856;51.460;7.158;2023-06-22T02:02:36;5.43;;;3.60;;
13568;SDS011;6856;51.460;7.158;2023-06-22T02:05:19;3.45;;;2.80;;
13568;SDS011;6856;51.460;7.158;2023-06-22T02:08:00;4.78;;;3.60;;
13568;SDS011;6856;51.460;7.158;2023-06-22T02:10:43;4.28;;;3.55;;
13568;SDS011;6856;51.460;7.158;2023-06-22T02:13:19;5.70;;;4.65;;
13568;SDS011;6856;51.460;7.158;2023-06-22T02:15:54;5.07;;;3.40;;
13568;SDS011;6856;51.460;7.158;2023-06-22T02:18:31;5.35;;;3.65;;
13568;SDS011;6856;51.460;7.158;2023-06-22T02:21:07;4.60;;;3.40;;
13568;SDS011;6856;51.460;7.158;2023-06-22T02:23:42;4.22;;;3.30;;
13568;SDS011;6856;51.460;7.158;2023-06-22T02:26:17;3.42;;;3.10;;
13568;SDS011;6856;51.460;7.158;2023-06-22T02:28:52;4.30;;;3.17;;
13568;SDS011;6856;51.460;7.158;2023-06-22T02:31:26;4.72;;;3.17;;
13568;SDS011;6856;51.460;7.158;2023-06-22T02:34:03;3.60;;;3.05;;
13568;SDS011;6856;51.460;7.158;2023-06-22T02:36:38;3.55;;;2.78;;
13568;SDS011;6856;51.460;7.158;2023-06-22T02:39:12;3.55;;;2.92;;
13568;SDS011;6856;51.460;7.158;2023-06-22T02:41:49;4.47;;;2.75;;
13568;SDS011;6856;51.460;7.158;2023-06-22T02:44:22;3.72;;;2.92;;
13568;SDS011;6856;51.460;7.158;2023-06-22T02:46:58;3.80;;;3.25;;
13568;SDS011;6856;51.460;7.158;2023-06-22T02:49:37;4.22;;;3.50;;
13568;SDS011;6856;51.460;7.158;2023-06-22T02:52:11;3.90;;;3.20;;
13568;SDS011;6856;51.460;7.158;2023-06-22T02:54:46;3.80;;;3.03;;
13568;SDS011;6856;51.460;7.158;2023-06-22T02:57:20;4.53;;;3.28;;
13568;SDS011;6856;51.460;7.158;2023-06-22T02:59:55;3.92;;;3.20;;
13568;SDS011;6856;51.460;7.158;2023-06-22T03:02:30;4.60;;;3.67;;
13568;SDS011;6856;51.460;7.158;2023-06-22T03:05:06;3.33;;;2.90;;
13568;SDS011;6856;51.460;7.158;2023-06-22T03:07:45;4.35;;;3.20;;
13568;SDS011;6856;51.460;7.158;2023-06-22T03:10:20;4.20;;;3.22;;
13568;SDS011;6856;51.460;7.158;2023-06-22T03:12:54;4.65;;;3.83;;
13568;SDS011;6856;51.460;7.158;2023-06-22T03:15:29;3.78;;;3.13;;
13568;SDS011;6856;51.460;7.158;2023-06-22T03:18:03;4.43;;;3.72;;
13568;SDS011;6856;51.460;7.158;2023-06-22T03:20:40;5.68;;;4.03;;
13568;SDS011;6856;51.460;7.158;2023-06-22T03:23:14;4.68;;;4.07;;
13568;SDS011;6856;51.460;7.158;2023-06-22T03:25:48;6.00;;;4.53;;
13568;SDS011;6856;51.460;7.158;2023-06-22T03:28:23;5.28;;;4.75;;
13568;SDS011;6856;51.460;7.158;2023-06-22T03:30:58;6.40;;;4.93;;
13568;SDS011;6856;51.460;7.158;2023-06-22T03:33:33;5.00;;;4.47;;
13568;SDS011;6856;51.460;7.158;2023-06-22T03:36:10;6.20;;;4.82;;
13568;SDS011;6856;51.460;7.158;2023-06-22T03:38:46;5.53;;;4.63;;
13568;SDS011;6856;51.460;7.158;2023-06-22T03:41:26;5.68;;;4.22;;
13568;SDS011;6856;51.460;7.158;2023-06-22T03:44:00;6.03;;;4.28;;
13568;SDS011;6856;51.460;7.158;2023-06-22T03:46:34;4.80;;;4.07;;
13568;SDS011;6856;51.460;7.158;2023-06-22T03:49:08;5.18;;;4.25;;
13568;SDS011;6856;51.460;7.158;2023-06-22T03:51:45;6.68;;;5.35;;
13568;SDS011;6856;51.460;7.158;2023-06-22T03:54:19;5.68;;;4.53;;
13568;SDS011;6856;51.460;7.158;2023-06-22T03:56:53;5.25;;;4.38;;
13568;SDS011;6856;51.460;7.158;2023-06-22T03:59:31;5.25;;;4.70;;
13568;SDS011;6856;51.460;7.158;2023-06-22T04:02:05;4.90;;;4.40;;
13568;SDS011;6856;51.460;7.158;2023-06-22T04:04:39;5.72;;;4.63;;
13568;SDS011;6856;51.460;7.158;2023-06-22T04:07:15;5.40;;;4.50;;
13568;SDS011;6856;51.460;7.158;2023-06-22T04:09:51;5.88;;;4.55;;
13568;SDS011;6856;51.460;7.158;2023-06-22T04:12:24;6.38;;;4.95;;
13568;SDS011;6856;51.460;7.158;2023-06-22T04:14:59;5.57;;;4.82;;
13568;SDS011;6856;51.460;7.158;2023-06-22T04:17:34;6.13;;;4.85;;
13568;SDS011;6856;51.460;7.158;2023-06-22T04:20:08;5.97;;;4.50;;
13568;SDS011;6856;51.460;7.158;2023-06-22T04:22:45;7.50;;;4.93;;
13568;SDS011;6856;51.460;7.158;2023-06-22T04:25:22;6.22;;;4.93;;
13568;SDS011;6856;51.460;7.158;2023-06-22T04:27:57;6.05;;;5.20;;
13568;SDS011;6856;51.460;7.158;2023-06-22T04:30:37;6.40;;;5.50;;
13568;SDS011;6856;51.460;7.158;2023-06-22T04:33:18;8.02;;;6.00;;
13568;SDS011;6856;51.460;7.158;2023-06-22T04:35:56;5.93;;;5.32;;
13568;SDS011;6856;51.460;7.158;2023-06-22T04:38:34;5.28;;;4.43;;
13568;SDS011;6856;51.460;7.158;2023-06-22T04:41:08;5.03;;;4.53;;
13568;SDS011;6856;51.460;7.158;2023-06-22T04:43:47;5.30;;;4.65;;
13568;SDS011;6856;51.460;7.158;2023-06-22T04:46:25;5.18;;;4.68;;
13568;SDS011;6856;51.460;7.158;2023-06-22T04:48:59;5.60;;;4.80;;
13568;SDS011;6856;51.460;7.158;2023-06-22T04:51:34;5.45;;;4.38;;
13568;SDS011;6856;51.460;7.158;2023-06-22T04:54:15;5.15;;;4.65;;
13568;SDS011;6856;51.460;7.158;2023-06-22T04:56:51;5.57;;;4.75;;
13568;SDS011;6856;51.460;7.158;2023-06-22T04:59:28;6.93;;;5.22;;
13568;SDS011;6856;51.460;7.158;2023-06-22T05:02:04;5.80;;;4.75;;
13568;SDS011;6856;51.460;7.158;2023-06-22T05:04:39;6.40;;;4.70;;
13568;SDS011;6856;51.460;7.158;2023-06-22T05:07:14;5.35;;;4.85;;
13568;SDS011;6856;51.460;7.158;2023-06-22T05:09:50;5.60;;;4.68;;
13568;SDS011;6856;51.460;7.158;2023-06-22T05:12:24;8.07;;;5.05;;
13568;SDS011;6856;51.460;7.158;2023-06-22T05:15:00;6.10;;;5.43;;
13568;SDS011;6856;51.460;7.158;2023-06-22T05:17:35;5.30;;;4.50;;
13568;SDS011;6856;51.460;7.158;2023-06-22T05:20:17;6.05;;;4.78;;
13568;SDS011;6856;51.460;7.158;2023-06-22T05:22:51;6.85;;;4.65;;
13568;SDS011;6856;51.460;7.158;2023-06-22T05:25:27;5.78;;;4.85;;
13568;SDS011;6856;51.460;7.158;2023-06-22T05:28:04;5.50;;;4.47;;
13568;SDS011;6856;51.460;7.158;2023-06-22T05:30:43;5.55;;;4.07;;
13568;SDS011;6856;51.460;7.158;2023-06-22T05:33:19;6.03;;;4.47;;
13568;SDS011;6856;51.460;7.158;2023-06-22T05:35:54;5.45;;;4.45;;
13568;SDS011;6856;51.460;7.158;2023-06-22T05:38:28;5.20;;;4.57;;
13568;SDS011;6856;51.460;7.158;2023-06-22T05:41:09;7.03;;;4.95;;
13568;SDS011;6856;51.460;7.158;2023-06-22T05:46:43;6.03;;;4.57;;
13568;SDS011;6856;51.460;7.158;2023-06-22T05:49:20;7.10;;;4.50;;
13568;SDS011;6856;51.460;7.158;2023-06-22T05:51:57;5.25;;;4.32;;
13568;SDS011;6856;51.460;7.158;2023-06-22T05:54:32;5.75;;;4.75;;
13568;SDS011;6856;51.460;7.158;2023-06-22T05:57:08;6.35;;;5.20;;
13568;SDS011;6856;51.460;7.158;2023-06-22T05:59:42;6.20;;;4.53;;
13568;SDS011;6856;51.460;7.158;2023-06-22T06:02:17;6.68;;;5.13;;
13568;SDS011;6856;51.460;7.158;2023-06-22T06:04:51;6.43;;;5.38;;
13568;SDS011;6856;51.460;7.158;2023-06-22T06:07:26;6.50;;;4.97;;
13568;SDS011;6856;51.460;7.158;2023-06-22T06:10:00;6.85;;;4.75;;
13568;SDS011;6856;51.460;7.158;2023-06-22T06:12:37;6.90;;;5.30;;
13568;SDS011;6856;51.460;7.158;2023-06-22T06:15:12;7.05;;;4.88;;
13568;SDS011;6856;51.460;7.158;2023-06-22T06:17:46;6.05;;;4.53;;
13568;SDS011;6856;51.460;7.158;2023-06-22T06:20:23;5.85;;;5.25;;
13568;SDS011;6856;51.460;7.158;2023-06-22T06:23:00;5.15;;;4.65;;
13568;SDS011;6856;51.460;7.158;2023-06-22T06:25:35;6.13;;;4.72;;
13568;SDS011;6856;51.460;7.158;2023-06-22T06:28:13;5.97;;;4.53;;
13568;SDS011;6856;51.460;7.158;2023-06-22T06:30:47;5.53;;;4.63;;
13568;SDS011;6856;51.460;7.158;2023-06-22T06:33:24;5.10;;;4.50;;
13568;SDS011;6856;51.460;7.158;2023-06-22T06:35:58;5.78;;;4.45;;
13568;SDS011;6856;51.460;7.158;2023-06-22T06:38:35;5.03;;;3.88;;
13568;SDS011;6856;51.460;7.158;2023-06-22T06:41:09;7.03;;;4.95;;
13568;SDS011;6856;51.460;7.158;2023-06-22T06:43:46;6.53;;;5.60;;
13568;SDS011;6856;51.460;7.158;2023-06-22T06:46:20;6.10;;;5.28;;
13568;SDS011;6856;51.460;7.158;2023-06-22T06:48:57;5.72;;;4.70;;
13568;SDS011;6856;51.460;7.158;2023-06-22T06:51:34;6.00;;;4.32;;
13568;SDS011;6856;51.460;7.158;2023-06-22T06:54:08;7.35;;;5.93;;
13568;SDS011;6856;51.460;7.158;2023-06-22T06:56:43;6.63;;;4.93;;
13568;SDS011;6856;51.460;7.158;2023-06-22T06:59:21;7.60;;;6.45;;
13568;SDS011;6856;51.460;7.158;2023-06-22T07:01:56;7.22;;;6.45;;
13568;SDS011;6856;51.460;7.158;2023-06-22T07:04:32;5.95;;;5.25;;
13568;SDS011;6856;51.460;7.158;2023-06-22T07:07:08;5.75;;;5.13;;
13568;SDS011;6856;51.460;7.158;2023-06-22T07:09:41;8.88;;;5.03;;
13568;SDS011;6856;51.460;7.158;2023-06-22T07:12:16;8.35;;;6.05;;
13568;SDS011;6856;51.460;7.158;2023-06-22T07:14:57;5.97;;;4.78;;
13568;SDS011;6856;51.460;7.158;2023-06-22T07:17:36;6.05;;;4.80;;
13568;SDS011;6856;51.460;7.158;2023-06-22T07:20:13;6.03;;;5.43;;
13568;SDS011;6856;51.460;7.158;2023-06-22T07:22:47;7.35;;;4.95;;
13568;SDS011;6856;51.460;7.158;2023-06-22T07:25:22;6.60;;;5.55;;
13568;SDS011;6856;51.460;7.158;2023-06-22T07:27:59;7.20;;;5.82;;
13568;SDS011;6856;51.460;7.158;2023-06-22T07:30:38;6.18;;;4.88;;
13568;SDS011;6856;51.460;7.158;2023-06-22T07:33:12;6.72;;;4.88;;
13568;SDS011;6856;51.460;7.158;2023-06-22T07:35:51;7.00;;;5.80;;
13568;SDS011;6856;51.460;7.158;2023-06-22T07:38:25;6.70;;;5.22;;
13568;SDS011;6856;51.460;7.158;2023-06-22T07:40:59;5.68;;;4.93;;
13568;SDS011;6856;51.460;7.158;2023-06-22T07:43:34;6.50;;;5.50;;
13568;SDS011;6856;51.460;7.158;2023-06-22T07:46:13;5.38;;;4.60;;
13568;SDS011;6856;51.460;7.158;2023-06-22T07:48:47;6.38;;;5.28;;
13568;SDS011;6856;51.460;7.158;2023-06-22T07:51:22;5.72;;;5.05;;
13568;SDS011;6856;51.460;7.158;2023-06-22T07:53:57;6.45;;;5.38;;
13568;SDS011;6856;51.460;7.158;2023-06-22T07:56:31;6.60;;;4.75;;
13568;SDS011;6856;51.460;7.158;2023-06-22T07:59:06;5.65;;;5.05;;
13568;SDS011;6856;51.460;7.158;2023-06-22T08:01:42;7.10;;;4.65;;
13568;SDS011;6856;51.460;7.158;2023-06-22T08:04:20;6.78;;;5.22;;
13568;SDS011;6856;51.460;7.158;2023-06-22T08:06:55;5.40;;;4.78;;
13568;SDS011;6856;51.460;7.158;2023-06-22T08:09:30;6.45;;;5.80;;
13568;SDS011;6856;51.460;7.158;2023-06-22T08:12:06;6.22;;;5.18;;
13568;SDS011;6856;51.460;7.158;2023-06-22T08:14:43;7.57;;;5.68;;
13568;SDS011;6856;51.460;7.158;2023-06-22T08:17:20;6.68;;;5.55;;
13568;SDS011;6856;51.460;7.158;2023-06-22T08:19:56;6.07;;;5.00;;
13568;SDS011;6856;51.460;7.158;2023-06-22T08:22:31;9.63;;;6.50;;
13568;SDS011;6856;51.460;7.158;2023-06-22T08:25:08;7.15;;;5.68;;
13568;SDS011;6856;51.460;7.158;2023-06-22T08:27:47;6.68;;;5.53;;
13568;SDS011;6856;51.460;7.158;2023-06-22T08:30:21;6.10;;;5.50;;
13568;SDS011;6856;51.460;7.158;2023-06-22T08:32:57;5.65;;;5.13;;
13568;SDS011;6856;51.460;7.158;2023-06-22T08:35:30;7.05;;;6.22;;
13568;SDS011;6856;51.460;7.158;2023-06-22T08:38:04;7.43;;;6.43;;
13568;SDS011;6856;51.460;7.158;2023-06-22T08:40:39;7.65;;;6.95;;
13568;SDS011;6856;51.460;7.158;2023-06-22T08:43:14;7.78;;;5.97;;
13568;SDS011;6856;51.460;7.158;2023-06-22T08:45:48;7.38;;;6.07;;
13568;SDS011;6856;51.460;7.158;2023-06-22T08:48:23;8.02;;;6.88;;
13568;SDS011;6856;51.460;7.158;2023-06-22T08:50:57;6.75;;;6.03;;
13568;SDS011;6856;51.460;7.158;2023-06-22T08:53:36;7.07;;;6.38;;
13568;SDS011;6856;51.460;7.158;2023-06-22T08:56:10;7.75;;;6.22;;
13568;SDS011;6856;51.460;7.158;2023-06-22T08:58:44;7.55;;;6.63;;
13568;SDS011;6856;51.460;7.158;2023-06-22T09:01:21;6.13;;;5.50;;
13568;SDS011;6856;51.460;7.158;2023-06-22T09:03:58;6.72;;;5.68;;
13568;SDS011;6856;51.460;7.158;2023-06-22T09:06:32;7.60;;;6.82;;
13568;SDS011;6856;51.460;7.158;2023-06-22T09:09:07;6.80;;;6.20;;
13568;SDS011;6856;51.460;7.158;2023-06-22T09:11:40;7.38;;;6.60;;
13568;SDS011;6856;51.460;7.158;2023-06-22T09:14:15;8.50;;;6.18;;
13568;SDS011;6856;51.460;7.158;2023-06-22T09:16:50;7.90;;;7.20;;
13568;SDS011;6856;51.460;7.158;2023-06-22T09:19:26;8.38;;;7.13;;
13568;SDS011;6856;51.460;7.158;2023-06-22T09:22:02;7.35;;;6.65;;
13568;SDS011;6856;51.460;7.158;2023-06-22T09:24:38;7.15;;;6.43;;
13568;SDS011;6856;51.460;7.158;2023-06-22T09:27:13;8.00;;;6.97;;
13568;SDS011;6856;51.460;7.158;2023-06-22T09:29:48;7.53;;;6.80;;
13568;SDS011;6856;51.460;7.158;2023-06-22T09:32:23;7.80;;;7.03;;
13568;SDS011;6856;51.460;7.158;2023-06-22T09:35:02;7.72;;;6.93;;
13568;SDS011;6856;51.460;7.158;2023-06-22T09:37:41;8.52;;;7.78;;
13568;SDS011;6856;51.460;7.158;2023-06-22T09:40:18;8.85;;;8.05;;
13568;SDS011;6856;51.460;7.158;2023-06-22T09:42:51;7.57;;;6.72;;
13568;SDS011;6856;51.460;7.158;2023-06-22T09:45:27;7.00;;;6.35;;
13568;SDS011;6856;51.460;7.158;2023-06-22T09:48:02;7.97;;;7.18;;
13568;SDS011;6856;51.460;7.158;2023-06-22T09:50:38;7.75;;;7.05;;
13568;SDS011;6856;51.460;7.158;2023-06-22T09:53:12;7.47;;;6.78;;
13568;SDS011;6856;51.460;7.158;2023-06-22T09:55:52;8.70;;;7.65;;
13568;SDS011;6856;51.460;7.158;2023-06-22T09:58:29;9.35;;;8.45;;
13568;SDS011;6856;51.460;7.158;2023-06-22T10:01:03;7.97;;;7.18;;
13568;SDS011;6856;51.460;7.158;2023-06-22T10:03:48;9.32;;;7.50;;
13568;SDS011;6856;51.460;7.158;2023-06-22T10:06:25;7.78;;;6.65;;
13568;SDS011;6856;51.460;7.158;2023-06-22T10:08:59;6.95;;;6.25;;
13568;SDS011;6856;51.460;7.158;2023-06-22T10:11:35;7.35;;;6.65;;
13568;SDS011;6856;51.460;7.158;2023-06-22T10:14:10;8.30;;;6.82;;
13568;SDS011;6856;51.460;7.158;2023-06-22T10:16:56;7.35;;;6.65;;
13568;SDS011;6856;51.460;7.158;2023-06-22T10:19:31;6.32;;;5.72;;
13568;SDS011;6856;51.460;7.158;2023-06-22T10:22:08;7.57;;;6.88;;
13568;SDS011;6856;51.460;7.158;2023-06-22T10:24:42;7.68;;;6.85;;
13568;SDS011;6856;51.460;7.158;2023-06-22T10:27:18;7.32;;;6.63;;
13568;SDS011;6856;51.460;7.158;2023-06-22T10:29:56;7.07;;;6.38;;
13568;SDS011;6856;51.460;7.158;2023-06-22T10:32:30;7.50;;;6.80;;
13568;SDS011;6856;51.460;7.158;2023-06-22T10:35:05;6.28;;;5.68;;
13568;SDS011;6856;51.460;7.158;2023-06-22T10:37:48;6.93;;;6.28;;
13568;SDS011;6856;51.460;7.158;2023-06-22T10:40:22;7.20;;;6.57;;
13568;SDS011;6856;51.460;7.158;2023-06-22T10:42:59;5.95;;;5.35;;
13568;SDS011;6856;51.460;7.158;2023-06-22T10:45:33;6.55;;;5.95;;
13568;SDS011;6856;51.460;7.158;2023-06-22T10:48:08;6.93;;;6.22;;
13568;SDS011;6856;51.460;7.158;2023-06-22T10:50:42;7.53;;;4.95;;
13568;SDS011;6856;51.460;7.158;2023-06-22T10:53:18;7.30;;;5.97;;
13568;SDS011;6856;51.460;7.158;2023-06-22T10:55:53;5.57;;;5.07;;
13568;SDS011;6856;51.460;7.158;2023-06-22T10:58:28;5.25;;;4.75;;
13568;SDS011;6856;51.460;7.158;2023-06-22T11:01:03;5.13;;;4.63;;
13568;SDS011;6856;51.460;7.158;2023-06-22T11:03:37;6.03;;;5.03;;
13568;SDS011;6856;51.460;7.158;2023-06-22T11:06:13;5.30;;;4.65;;
13568;SDS011;6856;51.460;7.158;2023-06-22T11:08:50;5.25;;;4.57;;
13568;SDS011;6856;51.460;7.158;2023-06-22T11:11:42;5.50;;;4.95;;
13568;SDS011;6856;51.460;7.158;2023-06-22T11:14:17;5.65;;;5.13;;
13568;SDS011;6856;51.460;7.158;2023-06-22T11:16:53;5.15;;;4.30;;
13568;SDS011;6856;51.460;7.158;2023-06-22T11:19:28;5.10;;;4.60;;
13568;SDS011;6856;51.460;7.158;2023-06-22T11:22:02;6.43;;;5.10;;
13568;SDS011;6856;51.460;7.158;2023-06-22T11:24:41;6.65;;;5.00;;
13568;SDS011;6856;51.460;7.158;2023-06-22T11:27:15;4.75;;;4.25;;
13568;SDS011;6856;51.460;7.158;2023-06-22T11:29:50;4.60;;;4.20;;
13568;SDS011;6856;51.460;7.158;2023-06-22T11:32:25;5.45;;;4.95;;
13568;SDS011;6856;51.460;7.158;2023-06-22T11:35:00;6.45;;;4.97;;
13568;SDS011;6856;51.460;7.158;2023-06-22T11:37:35;5.18;;;4.43;;
13568;SDS011;6856;51.460;7.158;2023-06-22T11:40:12;5.38;;;4.38;;
13568;SDS011;6856;51.460;7.158;2023-06-22T11:42:46;6.18;;;5.32;;
13568;SDS011;6856;51.460;7.158;2023-06-22T11:45:21;7.85;;;5.03;;
13568;SDS011;6856;51.460;7.158;2023-06-22T11:47:54;5.65;;;5.03;;
13568;SDS011;6856;51.460;7.158;2023-06-22T11:50:28;7.35;;;4.50;;
13568;SDS011;6856;51.460;7.158;2023-06-22T11:53:07;6.35;;;4.45;;
13568;SDS011;6856;51.460;7.158;2023-06-22T11:55:43;5.70;;;5.05;;
13568;SDS011;6856;51.460;7.158;2023-06-22T11:58:17;5.97;;;4.72;;
13568;SDS011;6856;51.460;7.158;2023-06-22T12:00:52;6.03;;;5.15;;
13568;SDS011;6856;51.460;7.158;2023-06-22T12:03:28;6.68;;;5.88;;
13568;SDS011;6856;51.460;7.158;2023-06-22T12:06:02;6.57;;;5.88;;
13568;SDS011;6856;51.460;7.158;2023-06-22T12:08:37;10.38;;;7.80;;
13568;SDS011;6856;51.460;7.158;2023-06-22T12:11:13;8.88;;;7.95;;
13568;SDS011;6856;51.460;7.158;2023-06-22T12:13:48;8.68;;;7.80;;
13568;SDS011;6856;51.460;7.158;2023-06-22T12:16:22;8.65;;;7.63;;
13568;SDS011;6856;51.460;7.158;2023-06-22T12:18:56;9.35;;;8.45;;
13568;SDS011;6856;51.460;7.158;2023-06-22T12:21:30;11.27;;;9.77;;
13568;SDS011;6856;51.460;7.158;2023-06-22T12:24:06;9.63;;;8.73;;
13568;SDS011;6856;51.460;7.158;2023-06-22T12:26:44;10.82;;;8.88;;
13568;SDS011;6856;51.460;7.158;2023-06-22T12:29:18;10.45;;;9.45;;
13568;SDS011;6856;51.460;7.158;2023-06-22T12:31:52;10.35;;;8.75;;
13568;SDS011;6856;51.460;7.158;2023-06-22T12:34:26;9.50;;;8.60;;
13568;SDS011;6856;51.460;7.158;2023-06-22T12:37:01;11.18;;;10.07;;
13568;SDS011;6856;51.460;7.158;2023-06-22T12:39:38;11.27;;;10.18;;
13568;SDS011;6856;51.460;7.158;2023-06-22T12:42:16;12.10;;;10.95;;
13568;SDS011;6856;51.460;7.158;2023-06-22T12:44:50;11.98;;;10.88;;
13568;SDS011;6856;51.460;7.158;2023-06-22T12:47:26;11.88;;;10.73;;
13568;SDS011;6856;51.460;7.158;2023-06-22T12:50:01;11.88;;;10.60;;
13568;SDS011;6856;51.460;7.158;2023-06-22T12:52:39;11.52;;;10.45;;
13568;SDS011;6856;51.460;7.158;2023-06-22T12:55:13;10.43;;;9.38;;
13568;SDS011;6856;51.460;7.158;2023-06-22T12:57:50;10.45;;;9.45;;
13568;SDS011;6856;51.460;7.158;2023-06-22T13:00:24;10.77;;;9.77;;
13568;SDS011;6856;51.460;7.158;2023-06-22T13:03:02;10.68;;;9.68;;
13568;SDS011;6856;51.460;7.158;2023-06-22T13:05:38;10.57;;;9.57;;
13568;SDS011;6856;51.460;7.158;2023-06-22T13:08:13;8.88;;;8.00;;
13568;SDS011;6856;51.460;7.158;2023-06-22T13:10:47;9.85;;;8.85;;
13568;SDS011;6856;51.460;7.158;2023-06-22T13:13:23;10.32;;;9.32;;
13568;SDS011;6856;51.460;7.158;2023-06-22T13:15:58;9.63;;;8.75;;
13568;SDS011;6856;51.460;7.158;2023-06-22T13:18:34;9.82;;;8.82;;
13568;SDS011;6856;51.460;7.158;2023-06-22T13:21:09;9.38;;;8.40;;
13568;SDS011;6856;51.460;7.158;2023-06-22T13:23:46;9.25;;;8.13;;
13568;SDS011;6856;51.460;7.158;2023-06-22T13:26:21;8.50;;;7.38;;
13568;SDS011;6856;51.460;7.158;2023-06-22T13:28:57;9.35;;;7.88;;
13568;SDS011;6856;51.460;7.158;2023-06-22T13:31:31;7.82;;;7.00;;
13568;SDS011;6856;51.460;7.158;2023-06-22T13:34:07;7.85;;;6.97;;
13568;SDS011;6856;51.460;7.158;2023-06-22T13:36:43;6.80;;;6.18;;
13568;SDS011;6856;51.460;7.158;2023-06-22T13:39:17;7.13;;;6.43;;
13568;SDS011;6856;51.460;7.158;2023-06-22T13:41:51;7.80;;;6.88;;
13568;SDS011;6856;51.460;7.158;2023-06-22T13:44:27;6.65;;;6.03;;
13568;SDS011;6856;51.460;7.158;2023-06-22T13:47:02;6.78;;;6.10;;
13568;SDS011;6856;51.460;7.158;2023-06-22T13:49:40;6.82;;;6.03;;
13568;SDS011;6856;51.460;7.158;2023-06-22T13:52:14;6.90;;;6.18;;
13568;SDS011;6856;51.460;7.158;2023-06-22T13:54:49;7.68;;;6.95;;
13568;SDS011;6856;51.460;7.158;2023-06-22T13:57:24;6.65;;;5.95;;
13568;SDS011;6856;51.460;7.158;2023-06-22T14:00:00;7.25;;;6.50;;
13568;SDS011;6856;51.460;7.158;2023-06-22T14:02:36;6.35;;;5.75;;
13568;SDS011;6856;51.460;7.158;2023-06-22T14:05:11;7.50;;;6.75;;
13568;SDS011;6856;51.460;7.158;2023-06-22T14:07:46;6.65;;;5.95;;
13568;SDS011;6856;51.460;7.158;2023-06-22T14:10:21;7.43;;;6.70;;
13568;SDS011;6856;51.460;7.158;2023-06-22T14:12:55;6.80;;;6.20;;
13568;SDS011;6856;51.460;7.158;2023-06-22T14:15:33;6.68;;;6.07;;
13568;SDS011;6856;51.460;7.158;2023-06-22T14:18:07;6.20;;;5.57;;
13568;SDS011;6856;51.460;7.158;2023-06-22T14:20:44;6.45;;;5.82;;
13568;SDS011;6856;51.460;7.158;2023-06-22T14:23:21;7.28;;;6.57;;
13568;SDS011;6856;51.460;7.158;2023-06-22T14:25:57;6.22;;;5.57;;
13568;SDS011;6856;51.460;7.158;2023-06-22T14:28:31;6.57;;;5.53;;
13568;SDS011;6856;51.460;7.158;2023-06-22T14:31:09;6.03;;;5.43;;
13568;SDS011;6856;51.460;7.158;2023-06-22T14:33:45;6.22;;;5.63;;
13568;SDS011;6856;51.460;7.158;2023-06-22T14:36:22;6.63;;;6.03;;
13568;SDS011;6856;51.460;7.158;2023-06-22T14:38:56;6.70;;;6.10;;
13568;SDS011;6856;51.460;7.158;2023-06-22T14:41:31;6.07;;;5.47;;
13568;SDS011;6856;51.460;7.158;2023-06-22T14:44:05;7.20;;;6.50;;
13568;SDS011;6856;51.460;7.158;2023-06-22T14:46:44;7.38;;;6.30;;
13568;SDS011;6856;51.460;7.158;2023-06-22T14:49:18;7.40;;;6.57;;
13568;SDS011;6856;51.460;7.158;2023-06-22T14:51:54;6.30;;;5.47;;
13568;SDS011;6856;51.460;7.158;2023-06-22T14:54:29;6.43;;;5.82;;
13568;SDS011;6856;51.460;7.158;2023-06-22T14:57:05;7.20;;;5.88;;
13568;SDS011;6856;51.460;7.158;2023-06-22T14:59:40;7.05;;;6.30;;
13568;SDS011;6856;51.460;7.158;2023-06-22T15:02:16;6.80;;;5.63;;
13568;SDS011;6856;51.460;7.158;2023-06-22T15:04:50;6.95;;;6.25;;
13568;SDS011;6856;51.460;7.158;2023-06-22T15:07:25;6.63;;;5.68;;
13568;SDS011;6856;51.460;7.158;2023-06-22T15:09:59;6.72;;;5.60;;
13568;SDS011;6856;51.460;7.158;2023-06-22T15:12:34;8.02;;;6.63;;
13568;SDS011;6856;51.460;7.158;2023-06-22T15:15:10;8.10;;;7.30;;
13568;SDS011;6856;51.460;7.158;2023-06-22T15:17:46;7.35;;;6.28;;
13568;SDS011;6856;51.460;7.158;2023-06-22T15:20:21;6.70;;;5.63;;
13568;SDS011;6856;51.460;7.158;2023-06-22T15:22:56;8.13;;;7.32;;
13568;SDS011;6856;51.460;7.158;2023-06-22T15:25:31;7.40;;;6.68;;
13568;SDS011;6856;51.460;7.158;2023-06-22T15:28:06;7.68;;;6.88;;
13568;SDS011;6856;51.460;7.158;2023-06-22T15:30:41;7.35;;;6.65;;
13568;SDS011;6856;51.460;7.158;2023-06-22T15:33:20;7.88;;;7.10;;
13568;SDS011;6856;51.460;7.158;2023-06-22T15:35:54;7.15;;;6.45;;
13568;SDS011;6856;51.460;7.158;2023-06-22T15:38:29;6.82;;;6.22;;
13568;SDS011;6856;51.460;7.158;2023-06-22T15:41:03;8.60;;;7.70;;
13568;SDS011;6856;51.460;7.158;2023-06-22T15:43:37;8.48;;;7.68;;
13568;SDS011;6856;51.460;7.158;2023-06-22T15:46:11;8.88;;;7.97;;
13568;SDS011;6856;51.460;7.158;2023-06-22T15:48:49;7.68;;;6.93;;
13568;SDS011;6856;51.460;7.158;2023-06-22T15:51:27;9.30;;;7.55;;
13568;SDS011;6856;51.460;7.158;2023-06-22T15:54:02;9.00;;;6.72;;
13568;SDS011;6856;51.460;7.158;2023-06-22T15:56:36;7.22;;;6.18;;